This is the latest recevied weather packets stored in our database for station/object KD9DOE. If no packets are shown the sender has not sent any weather packets the latest 1 day(s).
| Time | Temp. | Humidity | Pressure | Rain* | Wind** | Luminosity | Snow |
|---|---|---|---|---|---|---|---|
| 1778047932 | 3.89° C | 65% | 1011.6 hPa | 0 mm | - | 0 W/m² | - |
| 1778047327 | 3.89° C | 64% | 1011.7 hPa | 0 mm | - | 0 W/m² | - |
| 1778047024 | 4.44° C | 63% | 1011.6 hPa | 0 mm | - | 0 W/m² | - |
| 1778046721 | 4.44° C | 63% | 1011.7 hPa | 0 mm | - | 0 W/m² | - |
| 1778046418 | 4.44° C | 62% | 1011.6 hPa | 0 mm | - | 0 W/m² | - |
| 1778046114 | 4.44° C | 61% | 1011.7 hPa | 0 mm | - | 0 W/m² | - |
| 1778045510 | 5° C | 59% | 1011.6 hPa | 0 mm | - | 0 W/m² | - |
| 1778045208 | 5° C | 59% | 1011.5 hPa | 0 mm | - | 0 W/m² | - |
| 1778044906 | 5° C | 58% | 1011.4 hPa | 0 mm | - | 0 W/m² | - |
| 1778044603 | 5° C | 59% | 1011.6 hPa | 0 mm | - | 0 W/m² | - |
| 1778044299 | 5.56° C | 57% | 1011.4 hPa | 0 mm | - | 0 W/m² | - |
| 1778043694 | 5.56° C | 56% | 1011.6 hPa | 0 mm | - | 0 W/m² | - |
| 1778043087 | 5.56° C | 56% | 1011.6 hPa | 0 mm | - | 0 W/m² | - |
| 1778042785 | 6.11° C | 55% | 1011.7 hPa | 0 mm | - | 0 W/m² | - |
| 1778042482 | 6.11° C | 55% | 1011.7 hPa | 0 mm | - | 0 W/m² | - |
| 1778042179 | 6.11° C | 54% | 1011.7 hPa | 0 mm | - | 0 W/m² | - |
| 1778041877 | 6.67° C | 53% | 1011.6 hPa | 0 mm | - | 0 W/m² | - |
| 1778041576 | 6.67° C | 53% | 1011.6 hPa | 0 mm | - | 0 W/m² | - |
| 1778040972 | 6.67° C | 51% | 1011.5 hPa | 0 mm | - | 0 W/m² | - |
| 1778040668 | 6.67° C | 50% | 1011.5 hPa | 0 mm | - | 0 W/m² | - |
| 1778040366 | 7.22° C | 48% | 1011.3 hPa | 0 mm | - | 0 W/m² | - |
| 1778039456 | 7.78° C | 45% | 1011.1 hPa | 0 mm | - | 0 W/m² | - |
| 1778039153 | 7.78° C | 46% | 1011.1 hPa | 0 mm | - | 0 W/m² | - |
| 1778038850 | 7.78° C | 44% | 1011.3 hPa | 0 mm | - | 0 W/m² | - |
| 1778037942 | 8.33° C | 42% | 1011.3 hPa | 0 mm | - | 0 W/m² | - |
* Rain latest hour (hover to see other rain measurements)
** Current wind speed in m/s (hover to see current wind gust speed)